createdAt,value
2023-02-11T00:01:21.573Z,7.65
2023-02-11T00:03:49.522Z,6.45
2023-02-11T00:06:18.002Z,7.70
2023-02-11T00:08:45.901Z,7.32
2023-02-11T00:11:14.720Z,7.18
2023-02-11T00:13:42.759Z,7.28
2023-02-11T00:16:14.401Z,7.40
2023-02-11T00:18:42.336Z,6.82
2023-02-11T00:21:10.718Z,6.60
2023-02-11T00:23:39.000Z,6.93
2023-02-11T00:26:13.125Z,7.18
2023-02-11T00:28:41.146Z,6.57
2023-02-11T00:31:09.163Z,6.13
2023-02-11T00:33:38.806Z,6.68
2023-02-11T00:36:07.747Z,6.78
2023-02-11T00:38:35.623Z,7.22
2023-02-11T00:41:03.714Z,7.00
2023-02-11T00:43:31.679Z,6.15
2023-02-11T00:45:59.576Z,6.43
2023-02-11T00:48:27.483Z,5.88
2023-02-11T00:50:56.736Z,6.43
2023-02-11T00:53:24.638Z,6.25
2023-02-11T00:55:52.760Z,6.35
2023-02-11T00:58:23.120Z,5.97
2023-02-11T01:00:51.004Z,6.15
2023-02-11T01:03:18.916Z,6.10
2023-02-11T01:05:46.998Z,5.63
2023-02-11T01:08:16.337Z,7.38
2023-02-11T01:10:44.945Z,7.30
2023-02-11T01:13:13.069Z,6.78
2023-02-11T01:15:40.943Z,6.35
2023-02-11T01:18:08.903Z,6.15
2023-02-11T01:20:36.792Z,5.68
2023-02-11T01:23:04.685Z,5.80
2023-02-11T01:25:33.956Z,6.13
2023-02-11T01:28:01.960Z,5.57
2023-02-11T01:30:29.845Z,6.03
2023-02-11T01:32:57.920Z,6.50
2023-02-11T01:35:25.804Z,5.97
2023-02-11T01:37:53.705Z,6.18
2023-02-11T01:40:21.573Z,6.55
2023-02-11T01:42:51.211Z,6.20
2023-02-11T01:45:55.565Z,6.28
2023-02-11T01:48:25.875Z,6.80
2023-02-11T01:50:56.543Z,6.70
2023-02-11T01:53:41.891Z,6.13
2023-02-11T01:56:27.656Z,7.07
2023-02-11T01:59:01.962Z,5.97
2023-02-11T02:01:30.457Z,6.63
2023-02-11T02:04:01.185Z,6.20
2023-02-11T02:06:33.522Z,6.00
2023-02-11T02:09:05.169Z,5.97
2023-02-11T02:11:33.060Z,6.00
2023-02-11T02:14:02.408Z,6.05
2023-02-11T02:16:33.649Z,6.03
2023-02-11T02:19:22.747Z,5.70
2023-02-11T02:22:14.326Z,5.63
2023-02-11T02:24:57.833Z,6.15
2023-02-11T02:27:33.515Z,5.97
2023-02-11T02:30:43.097Z,5.57
2023-02-11T02:33:24.093Z,5.45
2023-02-11T02:36:02.135Z,5.45
2023-02-11T02:38:32.953Z,5.25
2023-02-11T02:41:04.649Z,5.97
2023-02-11T02:43:32.632Z,5.88
2023-02-11T02:46:12.174Z,6.13
2023-02-11T02:48:41.438Z,5.75
2023-02-11T02:51:31.183Z,6.18
2023-02-11T02:54:05.832Z,5.28
2023-02-11T02:56:37.652Z,5.75
2023-02-11T02:59:16.148Z,5.20
2023-02-11T03:01:51.840Z,5.65
2023-02-11T03:04:27.078Z,5.75
2023-02-11T03:06:59.089Z,5.60
2023-02-11T03:09:30.594Z,5.80
2023-02-11T03:11:58.529Z,5.65
2023-02-11T03:14:28.166Z,5.50
2023-02-11T03:16:59.312Z,5.65
2023-02-11T03:19:30.354Z,6.65
2023-02-11T03:21:58.941Z,6.45
2023-02-11T03:24:31.202Z,5.40
2023-02-11T03:27:01.756Z,6.28
2023-02-11T03:29:36.077Z,5.60
2023-02-11T03:32:09.452Z,5.72
2023-02-11T03:34:43.953Z,6.45
2023-02-11T03:37:15.554Z,6.10
2023-02-11T03:39:47.776Z,6.05
2023-02-11T03:42:16.283Z,6.53
2023-02-11T03:44:47.526Z,6.88
2023-02-11T03:47:16.883Z,6.28
2023-02-11T03:49:46.871Z,6.28
2023-02-11T03:52:16.265Z,6.13
2023-02-11T03:54:45.220Z,6.53
2023-02-11T03:57:13.177Z,6.35
2023-02-11T03:59:55.148Z,6.60
2023-02-11T04:02:24.029Z,6.00
2023-02-11T04:04:53.279Z,6.70
2023-02-11T04:07:21.205Z,6.90
2023-02-11T04:09:49.134Z,6.20
2023-02-11T04:12:17.020Z,6.38
2023-02-11T04:14:44.893Z,7.00
2023-02-11T04:17:12.942Z,6.75
2023-02-11T04:19:40.775Z,6.65
2023-02-11T04:22:10.014Z,6.22
2023-02-11T04:24:38.056Z,6.32
2023-02-11T04:27:05.963Z,7.00
2023-02-11T04:29:33.899Z,6.72
2023-02-11T04:32:01.850Z,7.00
2023-02-11T04:34:29.755Z,6.80
2023-02-11T04:36:57.662Z,6.57
2023-02-11T04:39:26.831Z,6.50
2023-02-11T04:41:54.885Z,7.00
2023-02-11T04:44:22.771Z,7.00
2023-02-11T04:46:50.711Z,6.85
2023-02-11T04:49:19.057Z,6.95
2023-02-11T04:51:49.295Z,6.82
2023-02-11T04:54:17.686Z,7.22
2023-02-11T04:56:47.250Z,7.35
2023-02-11T04:59:15.284Z,7.25
2023-02-11T05:01:43.199Z,8.10
2023-02-11T05:04:11.079Z,7.75
2023-02-11T05:06:40.357Z,7.93
2023-02-11T05:09:08.261Z,7.90
2023-02-11T05:11:36.675Z,8.70
2023-02-11T05:14:06.450Z,7.85
2023-02-11T05:16:34.972Z,7.70
2023-02-11T05:19:02.895Z,8.23
2023-02-11T05:21:30.789Z,8.50
2023-02-11T05:23:58.801Z,8.50
2023-02-11T05:26:26.779Z,8.38
2023-02-11T05:28:54.644Z,9.30
2023-02-11T05:31:24.085Z,9.07
2023-02-11T05:33:52.007Z,9.00
2023-02-11T05:36:19.863Z,8.82
2023-02-11T05:38:47.752Z,9.20
2023-02-11T05:41:15.655Z,9.68
2023-02-11T05:43:43.629Z,9.57
2023-02-11T05:46:11.556Z,9.60
2023-02-11T05:48:40.861Z,10.63
2023-02-11T05:51:08.763Z,10.13
2023-02-11T05:53:36.676Z,9.77
2023-02-11T05:56:04.849Z,9.77
2023-02-11T05:58:33.551Z,10.02
2023-02-11T06:01:01.460Z,10.77
2023-02-11T06:03:29.386Z,10.65
2023-02-11T06:05:58.764Z,10.32
2023-02-11T06:08:26.652Z,10.00
2023-02-11T06:10:54.683Z,10.73
2023-02-11T06:13:22.541Z,10.98
2023-02-11T06:15:57.424Z,10.48
2023-02-11T06:18:25.422Z,10.57
2023-02-11T06:20:53.570Z,10.98
2023-02-11T06:23:23.271Z,10.55
2023-02-11T06:25:51.628Z,11.20
2023-02-11T06:28:19.824Z,11.05
2023-02-11T06:30:47.829Z,11.50
2023-02-11T06:33:15.774Z,10.38
2023-02-11T06:35:43.688Z,12.20
2023-02-11T06:38:11.557Z,11.40
2023-02-11T06:40:41.155Z,12.02
2023-02-11T06:43:09.045Z,11.45
2023-02-11T06:45:36.944Z,10.68
2023-02-11T06:48:05.049Z,11.30
2023-02-11T06:50:32.976Z,11.57
2023-02-11T06:53:00.934Z,12.07
2023-02-11T06:55:29.037Z,11.95
2023-02-11T06:57:58.329Z,13.07
2023-02-11T07:00:26.643Z,13.20
2023-02-11T07:02:54.573Z,11.48
2023-02-11T07:05:22.721Z,12.55
2023-02-11T07:07:50.675Z,13.70
2023-02-11T07:10:18.946Z,12.60
2023-02-11T07:12:46.887Z,12.88
2023-02-11T07:15:16.223Z,13.38
2023-02-11T07:17:44.100Z,13.90
2023-02-11T07:20:14.719Z,12.93
2023-02-11T07:22:42.592Z,13.52
2023-02-11T07:25:10.430Z,14.65
2023-02-11T07:27:38.258Z,13.02
2023-02-11T07:30:07.456Z,15.38
2023-02-11T07:32:36.907Z,14.25
2023-02-11T07:35:05.323Z,14.52
2023-02-11T07:37:34.843Z,14.23
2023-02-11T07:40:05.472Z,15.68
2023-02-11T07:42:33.371Z,15.70
2023-02-11T07:45:02.423Z,16.55
2023-02-11T07:47:30.345Z,14.88
2023-02-11T07:49:59.751Z,14.40
2023-02-11T07:52:30.679Z,15.43
2023-02-11T07:54:58.745Z,14.55
2023-02-11T07:57:26.696Z,15.20
2023-02-11T07:59:54.890Z,15.73
2023-02-11T08:02:22.887Z,16.48
2023-02-11T08:04:50.918Z,16.73
2023-02-11T08:07:20.603Z,16.27
2023-02-11T08:09:48.541Z,16.70
2023-02-11T08:12:16.493Z,16.65
2023-02-11T08:14:44.500Z,17.15
2023-02-11T08:17:12.498Z,16.23
2023-02-11T08:19:40.829Z,18.20
2023-02-11T08:22:08.756Z,16.73
2023-02-11T08:24:38.002Z,17.73
2023-02-11T08:27:05.870Z,17.25
2023-02-11T08:29:33.918Z,17.58
2023-02-11T08:32:01.910Z,18.50
2023-02-11T08:34:29.891Z,17.48
2023-02-11T08:36:57.885Z,18.38
2023-02-11T08:39:25.976Z,17.38
2023-02-11T08:41:56.731Z,18.90
2023-02-11T08:44:25.625Z,18.17
2023-02-11T08:46:54.087Z,18.30
2023-02-11T08:49:22.456Z,18.17
2023-02-11T08:51:51.490Z,18.60
2023-02-11T08:54:19.460Z,19.85
2023-02-11T08:56:47.537Z,20.45
2023-02-11T08:59:17.897Z,19.17
2023-02-11T09:01:47.198Z,19.10
2023-02-11T09:04:15.377Z,19.48
2023-02-11T09:06:43.403Z,20.67
2023-02-11T09:09:13.476Z,18.48
2023-02-11T09:11:42.310Z,20.00
2023-02-11T09:14:19.130Z,20.83
2023-02-11T09:16:47.222Z,19.50
2023-02-11T09:19:15.150Z,20.85
2023-02-11T09:21:43.049Z,21.02
2023-02-11T09:24:11.048Z,22.30
2023-02-11T09:26:39.720Z,19.88
2023-02-11T09:29:07.711Z,21.80
2023-02-11T09:31:37.138Z,20.70
2023-02-11T09:34:06.398Z,21.30
2023-02-11T09:36:37.288Z,20.90
2023-02-11T09:39:07.133Z,19.58
2023-02-11T09:41:43.341Z,21.35
2023-02-11T09:44:19.503Z,22.10
2023-02-11T09:46:54.828Z,22.95
2023-02-11T09:49:26.519Z,20.90
2023-02-11T09:51:58.994Z,20.40
2023-02-11T09:54:29.623Z,21.67
2023-02-11T09:56:57.781Z,21.17
2023-02-11T09:59:25.744Z,20.83
2023-02-11T10:01:59.434Z,21.40
2023-02-11T10:04:41.629Z,21.55
2023-02-11T10:07:19.784Z,21.60
2023-02-11T10:10:00.751Z,20.67
2023-02-11T10:12:41.524Z,21.20
2023-02-11T10:15:23.008Z,21.23
2023-02-11T10:18:03.273Z,21.05
2023-02-11T10:20:34.547Z,21.30
2023-02-11T10:23:06.773Z,21.33
2023-02-11T10:25:37.152Z,21.10
2023-02-11T10:28:13.113Z,20.30
2023-02-11T10:30:44.418Z,20.65
2023-02-11T10:33:20.036Z,20.77
2023-02-11T10:35:48.275Z,20.65
2023-02-11T10:38:16.324Z,20.25
2023-02-11T10:40:44.247Z,21.27
2023-02-11T10:43:14.776Z,20.42
2023-02-11T10:45:44.848Z,20.98
2023-02-11T10:48:39.603Z,21.42
2023-02-11T10:51:18.281Z,22.35
2023-02-11T10:53:46.962Z,21.92
2023-02-11T10:56:22.599Z,22.65
2023-02-11T10:58:57.362Z,21.83
2023-02-11T11:01:38.907Z,21.92
2023-02-11T11:04:37.512Z,23.02
2023-02-11T11:07:14.821Z,21.55
2023-02-11T11:09:49.195Z,22.85
2023-02-11T11:12:30.153Z,23.45
2023-02-11T11:14:59.449Z,23.40
2023-02-11T11:17:29.146Z,23.50
2023-02-11T11:20:17.459Z,24.90
2023-02-11T11:22:46.217Z,23.08
2023-02-11T11:25:32.261Z,23.20
2023-02-11T11:28:01.836Z,24.88
2023-02-11T11:30:34.634Z,24.17
2023-02-11T11:33:03.144Z,24.50
2023-02-11T11:35:34.058Z,24.95
2023-02-11T11:38:03.730Z,22.35
2023-02-11T11:40:32.555Z,22.77
2023-02-11T11:43:07.647Z,22.92
2023-02-11T11:45:35.656Z,22.95
2023-02-11T11:48:07.211Z,23.33
2023-02-11T11:50:39.026Z,22.40
2023-02-11T11:53:11.082Z,24.02
2023-02-11T11:55:42.862Z,23.73
2023-02-11T11:58:15.716Z,24.13
2023-02-11T12:00:53.356Z,23.98
2023-02-11T12:04:01.543Z,23.98
2023-02-11T12:06:41.180Z,25.60
2023-02-11T12:09:17.706Z,26.35
2023-02-11T12:11:58.894Z,26.70
2023-02-11T12:14:35.047Z,25.40
2023-02-11T12:17:06.297Z,24.95
2023-02-11T12:19:52.371Z,25.17
2023-02-11T12:22:32.428Z,24.48
2023-02-11T12:25:20.543Z,26.55
2023-02-11T12:27:53.284Z,24.33
2023-02-11T12:30:39.828Z,25.63
2023-02-11T12:33:12.829Z,25.90
2023-02-11T12:35:48.521Z,24.60
2023-02-11T12:38:25.804Z,25.33
2023-02-11T12:41:03.596Z,25.27
2023-02-11T12:43:36.262Z,25.45
2023-02-11T12:46:20.971Z,26.10
2023-02-11T12:49:24.432Z,24.50
2023-02-11T12:52:11.014Z,24.75
2023-02-11T12:54:44.860Z,24.48
2023-02-11T12:57:18.836Z,23.67
2023-02-11T12:59:55.371Z,23.30
2023-02-11T13:02:29.616Z,27.13
2023-02-11T13:05:00.469Z,24.10
2023-02-11T13:07:32.744Z,23.10
2023-02-11T13:10:07.638Z,24.70
2023-02-11T13:12:54.055Z,24.55
2023-02-11T13:15:22.082Z,24.20
2023-02-11T13:17:56.472Z,24.02
2023-02-11T13:20:34.180Z,24.77
2023-02-11T13:23:11.324Z,24.27
2023-02-11T13:25:44.512Z,25.27
2023-02-11T13:28:22.073Z,24.88
2023-02-11T13:30:57.792Z,24.52
2023-02-11T13:33:33.916Z,25.98
2023-02-11T13:36:27.884Z,24.67
2023-02-11T13:39:01.368Z,23.67
2023-02-11T13:41:34.088Z,23.85
2023-02-11T13:44:23.252Z,25.08
2023-02-11T13:46:54.346Z,24.55
2023-02-11T13:49:24.876Z,23.85
2023-02-11T13:51:53.476Z,24.95
2023-02-11T13:54:25.338Z,24.23
2023-02-11T13:57:23.921Z,24.65
2023-02-11T13:59:53.008Z,23.27
2023-02-11T14:02:48.680Z,26.23
2023-02-11T14:05:48.093Z,25.33
2023-02-11T14:08:39.722Z,25.20
2023-02-11T14:11:27.418Z,23.98
2023-02-11T14:14:13.092Z,25.38
2023-02-11T14:17:21.563Z,25.15
2023-02-11T14:19:50.494Z,25.58
2023-02-11T14:22:21.387Z,26.15
2023-02-11T14:24:52.741Z,26.58
2023-02-11T14:27:25.453Z,26.02
2023-02-11T14:30:12.456Z,26.50
2023-02-11T14:32:48.205Z,26.00
2023-02-11T14:35:23.460Z,25.52
2023-02-11T14:37:56.969Z,25.88
2023-02-11T14:40:29.263Z,25.73
2023-02-11T14:42:58.204Z,27.38
2023-02-11T14:45:29.361Z,27.77
2023-02-11T14:48:02.765Z,27.00
2023-02-11T14:50:35.305Z,27.83
2023-02-11T14:53:06.224Z,26.98
2023-02-11T14:55:37.077Z,27.60
2023-02-11T14:58:23.267Z,27.83
2023-02-11T15:00:55.583Z,27.88
2023-02-11T15:03:28.247Z,26.95
2023-02-11T15:05:58.154Z,28.48
2023-02-11T15:08:26.075Z,26.73
2023-02-11T15:10:55.062Z,28.52
2023-02-11T15:13:27.048Z,27.50
2023-02-11T15:15:59.863Z,28.08
2023-02-11T15:18:34.712Z,28.45
2023-02-11T15:21:02.657Z,29.70
2023-02-11T15:23:31.294Z,28.63
2023-02-11T15:26:03.223Z,27.75
2023-02-11T15:28:32.653Z,28.92
2023-02-11T15:31:04.117Z,29.63
2023-02-11T15:33:33.144Z,28.92
2023-02-11T15:36:01.704Z,28.27
2023-02-11T15:38:30.432Z,30.77
2023-02-11T15:41:00.803Z,28.60
2023-02-11T15:43:42.462Z,27.45
2023-02-11T15:46:15.673Z,29.20
2023-02-11T15:48:44.866Z,30.30
2023-02-11T15:51:19.132Z,30.33
2023-02-11T15:53:49.484Z,30.30
2023-02-11T15:56:21.671Z,31.05
2023-02-11T15:58:50.625Z,29.75
2023-02-11T16:01:20.059Z,30.50
2023-02-11T16:03:51.647Z,30.15
2023-02-11T16:06:21.895Z,29.77
2023-02-11T16:09:00.700Z,30.15
2023-02-11T16:11:31.522Z,31.55
2023-02-11T16:14:05.162Z,30.58
2023-02-11T16:16:36.292Z,30.33
2023-02-11T16:19:06.267Z,30.50
2023-02-11T16:21:38.933Z,31.52
2023-02-11T16:24:08.412Z,32.20
2023-02-11T16:26:41.011Z,31.70
2023-02-11T16:29:13.105Z,31.13
2023-02-11T16:31:44.207Z,31.38
2023-02-11T16:34:17.580Z,31.08
2023-02-11T16:36:45.754Z,31.05
2023-02-11T16:39:14.346Z,30.52
2023-02-11T16:41:42.255Z,30.80
2023-02-11T16:44:10.257Z,32.78
2023-02-11T16:46:38.723Z,31.15
2023-02-11T16:49:12.218Z,31.60
2023-02-11T16:51:41.734Z,32.33
2023-02-11T16:54:13.934Z,33.47
2023-02-11T16:56:41.901Z,32.95
2023-02-11T16:59:09.851Z,33.28
2023-02-11T17:01:39.257Z,32.97
2023-02-11T17:04:07.813Z,32.45
2023-02-11T17:06:37.191Z,32.83
2023-02-11T17:09:06.752Z,35.25
2023-02-11T17:11:34.657Z,32.80
2023-02-11T17:14:02.477Z,32.78
2023-02-11T17:16:30.840Z,33.80
2023-02-11T17:18:58.762Z,32.67
2023-02-11T17:21:29.506Z,32.10
2023-02-11T17:23:59.471Z,32.40
2023-02-11T17:26:27.457Z,33.65
2023-02-11T17:28:55.372Z,33.15
2023-02-11T17:31:23.421Z,34.22
2023-02-11T17:33:51.332Z,33.03
2023-02-11T17:36:19.508Z,32.72
2023-02-11T17:38:47.420Z,32.80
2023-02-11T17:41:16.725Z,33.60
2023-02-11T17:43:44.800Z,32.05
2023-02-11T17:46:13.079Z,32.38
2023-02-11T17:48:41.045Z,32.78
2023-02-11T17:51:22.435Z,32.47
2023-02-11T17:53:50.352Z,31.60
2023-02-11T17:56:19.724Z,32.35
2023-02-11T17:58:48.384Z,33.00
2023-02-11T18:01:16.271Z,33.35
2023-02-11T18:03:44.171Z,32.97
2023-02-11T18:06:12.943Z,32.97
2023-02-11T18:08:43.125Z,33.05
2023-02-11T18:11:11.683Z,33.00
2023-02-11T18:13:40.898Z,33.67
2023-02-11T18:16:09.425Z,34.03
2023-02-11T18:18:37.356Z,32.53
2023-02-11T18:21:08.507Z,33.70
2023-02-11T18:23:36.508Z,34.45
2023-02-11T18:26:08.201Z,33.17
2023-02-11T18:28:36.277Z,32.75
2023-02-11T18:31:06.481Z,33.33
2023-02-11T18:33:34.819Z,33.67
2023-02-11T18:36:06.300Z,31.13
2023-02-11T18:38:34.182Z,31.17
2023-02-11T18:41:02.146Z,33.22
2023-02-11T18:43:31.625Z,31.67
2023-02-11T18:45:59.708Z,32.33
2023-02-11T18:48:29.184Z,32.10
2023-02-11T18:50:57.260Z,31.98
2023-02-11T18:53:25.202Z,31.42
2023-02-11T18:55:54.008Z,30.60
2023-02-11T18:58:22.234Z,31.40
2023-02-11T19:00:50.644Z,32.83
2023-02-11T19:03:18.505Z,31.75
2023-02-11T19:05:50.074Z,32.25
2023-02-11T19:08:18.493Z,32.25
2023-02-11T19:10:48.069Z,31.95
2023-02-11T19:13:16.135Z,33.00
2023-02-11T19:15:44.892Z,32.75
2023-02-11T19:18:18.180Z,30.77
2023-02-11T19:20:47.560Z,30.73
2023-02-11T19:23:15.472Z,31.73
2023-02-11T19:25:53.293Z,31.63
2023-02-11T19:28:21.408Z,31.58
2023-02-11T19:30:49.457Z,33.13
2023-02-11T19:33:17.364Z,31.70
2023-02-11T19:35:45.472Z,31.10
2023-02-11T19:38:15.836Z,31.70
2023-02-11T19:40:43.797Z,31.83
2023-02-11T19:43:11.667Z,30.88
2023-02-11T19:45:39.616Z,30.00
2023-02-11T19:48:07.540Z,32.47
2023-02-11T19:50:35.457Z,31.65
2023-02-11T19:53:03.483Z,33.40
2023-02-11T19:55:35.512Z,31.13
2023-02-11T19:58:03.409Z,31.83
2023-02-11T20:00:31.587Z,32.70
2023-02-11T20:02:59.601Z,31.45
2023-02-11T20:05:27.553Z,31.70
2023-02-11T20:07:55.420Z,31.92
2023-02-11T20:10:24.732Z,31.63
2023-02-11T20:12:54.186Z,31.85
2023-02-11T20:15:22.112Z,30.25
2023-02-11T20:17:50.000Z,32.42
2023-02-11T20:20:18.544Z,31.63
2023-02-11T20:22:46.428Z,30.80
2023-02-11T20:25:14.355Z,32.35
2023-02-11T20:27:42.192Z,31.45
2023-02-11T20:30:13.427Z,32.78
2023-02-11T20:32:41.413Z,32.20
2023-02-11T20:35:10.213Z,31.17
2023-02-11T20:37:38.784Z,31.50
2023-02-11T20:40:08.003Z,31.58
2023-02-11T20:42:35.940Z,31.63
2023-02-11T20:45:03.892Z,33.00
2023-02-11T20:47:33.225Z,31.05
2023-02-11T20:50:01.176Z,33.20
2023-02-11T20:52:29.356Z,30.80
2023-02-11T20:54:57.196Z,31.38
2023-02-11T20:57:25.201Z,30.08
2023-02-11T20:59:53.110Z,31.92
2023-02-11T21:02:23.517Z,29.60
2023-02-11T21:04:53.972Z,30.75
2023-02-11T21:07:21.902Z,32.67
2023-02-11T21:09:49.919Z,32.67
2023-02-11T21:12:17.819Z,31.58
2023-02-11T21:14:45.899Z,28.88
2023-02-11T21:17:14.085Z,29.50
2023-02-11T21:19:43.320Z,33.42
2023-02-11T21:22:12.615Z,30.27
2023-02-11T21:24:40.545Z,30.20
2023-02-11T21:27:08.524Z,30.67
2023-02-11T21:29:45.749Z,30.48
2023-02-11T21:32:20.793Z,30.40
2023-02-11T21:34:48.764Z,29.85
2023-02-11T21:37:18.006Z,30.50
2023-02-11T21:39:45.899Z,31.08
2023-02-11T21:42:13.779Z,30.58
2023-02-11T21:44:41.746Z,31.17
2023-02-11T21:47:09.664Z,31.23
2023-02-11T21:49:37.621Z,30.17
2023-02-11T21:52:05.916Z,35.22
2023-02-11T21:54:35.193Z,31.70
2023-02-11T21:57:04.011Z,32.33
2023-02-11T21:59:32.767Z,32.00
2023-02-11T22:02:00.627Z,30.42
2023-02-11T22:04:28.669Z,29.48
2023-02-11T22:06:56.598Z,29.88
2023-02-11T22:09:24.758Z,27.35
2023-02-11T22:11:54.012Z,27.52
2023-02-11T22:14:22.063Z,22.02
2023-02-11T22:16:50.084Z,23.15
2023-02-11T22:19:18.870Z,22.42
2023-02-11T22:21:46.743Z,21.75
2023-02-11T22:24:14.668Z,18.75
2023-02-11T22:26:42.614Z,19.10
2023-02-11T22:29:12.352Z,18.73
2023-02-11T22:31:40.382Z,19.35
2023-02-11T22:34:08.668Z,18.05
2023-02-11T22:36:39.117Z,20.35
2023-02-11T22:39:09.093Z,18.48
2023-02-11T22:41:38.336Z,19.20
2023-02-11T22:44:06.338Z,19.10
2023-02-11T22:46:36.008Z,19.13
2023-02-11T22:49:04.230Z,19.20
2023-02-11T22:51:32.669Z,19.70
2023-02-11T22:54:02.403Z,19.27
2023-02-11T22:56:31.964Z,18.20
2023-02-11T22:59:00.339Z,18.10
2023-02-11T23:01:28.779Z,20.52
2023-02-11T23:03:59.770Z,24.05
2023-02-11T23:06:27.846Z,19.45
2023-02-11T23:08:56.282Z,21.80
2023-02-11T23:11:27.120Z,20.65
2023-02-11T23:13:55.911Z,18.67
2023-02-11T23:16:25.879Z,18.27
2023-02-11T23:18:54.237Z,18.10
2023-02-11T23:21:25.158Z,18.80
2023-02-11T23:23:55.890Z,18.65
2023-02-11T23:26:24.001Z,16.90
2023-02-11T23:28:52.032Z,17.08
2023-02-11T23:31:22.037Z,15.63
2023-02-11T23:33:50.843Z,16.17
2023-02-11T23:36:19.791Z,16.73
2023-02-11T23:38:49.600Z,15.93
2023-02-11T23:41:18.065Z,16.10
2023-02-11T23:43:49.274Z,15.75
2023-02-11T23:46:17.324Z,15.30
2023-02-11T23:48:45.327Z,14.68
2023-02-11T23:51:13.548Z,15.93
2023-02-11T23:53:41.655Z,15.00
2023-02-11T23:56:14.162Z,14.38
2023-02-11T23:58:42.325Z,13.55
